OCN4EK EDDF-LDSP
Flight info
| Callsign | OCN4EK |
|---|---|
| Flight time | N/A |
| Altitude | 35000 |
| Route | CINDY8S/18 CINDY Z74 LAMPU DCT NOMBO Y161 RIDAR/N0439F370 Y161 MAH DCT VAVOR DCT RADIZ DCT ALIVO DCT NUPSO |
| Aircraft | A320/M-SDE2E3FGIJ1LORWXYZ/HB1 |
Departure
| Time | N/A |
|---|---|
| Airport | Frankfurt Main Airport (EDDF) |
Arrival
| Time | 2026-05-07 16:09 |
|---|---|
| Airport | Split Saint Jerome Airport (LDSP) |
| Time | Latitude | Longitude | Altitude | Speed | Heading |
|---|---|---|---|---|---|
| 2026-05-07 15:33 | 46.02017 | 14.23836 | 34937 ft | 437 kts | 152° |
| 2026-05-07 15:33 | 45.99500 | 14.26401 | 34937 ft | 437 kts | 152° |
| 2026-05-07 15:34 | 45.94534 | 14.31447 | 34936 ft | 437 kts | 152° |
| 2026-05-07 15:34 | 45.89564 | 14.36487 | 34931 ft | 436 kts | 153° |
| 2026-05-07 15:35 | 45.84641 | 14.41473 | 34947 ft | 436 kts | 153° |
| 2026-05-07 15:35 | 45.79681 | 14.46483 | 34956 ft | 436 kts | 153° |
| 2026-05-07 15:36 | 45.74723 | 14.51481 | 34965 ft | 436 kts | 153° |
| 2026-05-07 15:36 | 45.69756 | 14.56483 | 34975 ft | 436 kts | 153° |
| 2026-05-07 15:37 | 45.64802 | 14.61466 | 34945 ft | 436 kts | 153° |
| 2026-05-07 15:37 | 45.59832 | 14.66435 | 34981 ft | 437 kts | 153° |
| 2026-05-07 15:38 | 45.54839 | 14.71415 | 34986 ft | 438 kts | 153° |
| 2026-05-07 15:38 | 45.49788 | 14.76227 | 35001 ft | 434 kts | 156° |
| 2026-05-07 15:39 | 45.44573 | 14.80519 | 35007 ft | 433 kts | 159° |
| 2026-05-07 15:39 | 45.39321 | 14.84653 | 34983 ft | 430 kts | 159° |
| 2026-05-07 15:40 | 45.34140 | 14.88811 | 34976 ft | 431 kts | 158° |
| 2026-05-07 15:40 | 45.28939 | 14.93067 | 34986 ft | 432 kts | 158° |
| 2026-05-07 15:41 | 45.23737 | 14.97337 | 34989 ft | 432 kts | 158° |
| 2026-05-07 15:41 | 45.21133 | 14.99465 | 34807 ft | 431 kts | 158° |
| 2026-05-07 15:41 | 45.18541 | 15.01579 | 34563 ft | 428 kts | 158° |
| 2026-05-07 15:42 | 45.15963 | 15.03677 | 34302 ft | 426 kts | 158° |
| 2026-05-07 15:42 | 45.13393 | 15.05762 | 34068 ft | 425 kts | 158° |
| 2026-05-07 15:42 | 45.10827 | 15.07836 | 33791 ft | 424 kts | 158° |
| 2026-05-07 15:42 | 45.08272 | 15.09900 | 33523 ft | 422 kts | 159° |
| 2026-05-07 15:43 | 45.05728 | 15.11957 | 33260 ft | 420 kts | 158° |
| 2026-05-07 15:43 | 45.03198 | 15.14003 | 32989 ft | 418 kts | 158° |
| 2026-05-07 15:43 | 45.01530 | 15.15353 | 32814 ft | 416 kts | 158° |
| 2026-05-07 15:43 | 44.98179 | 15.18061 | 32465 ft | 414 kts | 158° |
| 2026-05-07 15:44 | 44.96523 | 15.19397 | 32286 ft | 412 kts | 158° |
| 2026-05-07 15:44 | 44.94041 | 15.21397 | 32003 ft | 410 kts | 158° |
| 2026-05-07 15:44 | 44.91561 | 15.23389 | 31752 ft | 409 kts | 158° |
| 2026-05-07 15:44 | 44.89096 | 15.25365 | 31449 ft | 405 kts | 158° |
| 2026-05-07 15:45 | 44.86664 | 15.27317 | 30958 ft | 402 kts | 158° |
| 2026-05-07 15:45 | 44.84237 | 15.29267 | 30507 ft | 399 kts | 158° |
| 2026-05-07 15:45 | 44.81833 | 15.31197 | 30039 ft | 397 kts | 158° |
| 2026-05-07 15:45 | 44.79445 | 15.33110 | 29560 ft | 393 kts | 158° |
| 2026-05-07 15:46 | 44.74762 | 15.36855 | 28695 ft | 382 kts | 158° |
| 2026-05-07 15:46 | 44.72469 | 15.38686 | 28269 ft | 377 kts | 158° |
| 2026-05-07 15:46 | 44.70202 | 15.40494 | 27869 ft | 372 kts | 159° |
| 2026-05-07 15:47 | 44.67962 | 15.42279 | 27457 ft | 368 kts | 159° |
| 2026-05-07 15:47 | 44.65748 | 15.44041 | 27046 ft | 365 kts | 159° |
| 2026-05-07 15:47 | 44.63547 | 15.45789 | 26628 ft | 362 kts | 159° |
| 2026-05-07 15:47 | 44.61365 | 15.47519 | 26206 ft | 360 kts | 159° |
| 2026-05-07 15:48 | 44.59193 | 15.49242 | 25775 ft | 358 kts | 159° |
| 2026-05-07 15:48 | 44.57111 | 15.50898 | 25350 ft | 357 kts | 159° |
| 2026-05-07 15:48 | 44.55323 | 15.52315 | 24997 ft | 356 kts | 159° |
| 2026-05-07 15:48 | 44.53169 | 15.54013 | 24546 ft | 355 kts | 159° |
| 2026-05-07 15:49 | 44.51015 | 15.55709 | 24093 ft | 355 kts | 159° |
| 2026-05-07 15:49 | 44.48869 | 15.57402 | 23630 ft | 354 kts | 159° |
| 2026-05-07 15:49 | 44.46726 | 15.59094 | 23123 ft | 352 kts | 159° |
| 2026-05-07 15:49 | 44.44600 | 15.60775 | 22675 ft | 350 kts | 158° |
| 2026-05-07 15:50 | 44.42486 | 15.62447 | 22235 ft | 348 kts | 158° |
| 2026-05-07 15:50 | 44.40385 | 15.64106 | 21803 ft | 345 kts | 158° |
| 2026-05-07 15:50 | 44.38326 | 15.65727 | 21379 ft | 343 kts | 158° |
| 2026-05-07 15:50 | 44.36251 | 15.67357 | 20950 ft | 341 kts | 158° |
| 2026-05-07 15:51 | 44.34184 | 15.68981 | 20528 ft | 340 kts | 158° |
| 2026-05-07 15:51 | 44.32127 | 15.70596 | 20111 ft | 339 kts | 158° |
| 2026-05-07 15:51 | 44.30070 | 15.72194 | 19723 ft | 336 kts | 160° |
| 2026-05-07 15:51 | 44.27946 | 15.73200 | 19639 ft | 312 kts | 175° |
| 2026-05-07 15:52 | 44.25857 | 15.73787 | 19573 ft | 301 kts | 175° |
| 2026-05-07 15:52 | 44.23824 | 15.74348 | 19499 ft | 298 kts | 175° |
| 2026-05-07 15:52 | 44.21782 | 15.74893 | 19188 ft | 298 kts | 176° |
| 2026-05-07 15:52 | 44.19751 | 15.75429 | 18893 ft | 296 kts | 175° |
| 2026-05-07 15:53 | 44.17667 | 15.75977 | 18358 ft | 312 kts | 175° |
| 2026-05-07 15:53 | 44.15517 | 15.76553 | 17904 ft | 316 kts | 174° |
| 2026-05-07 15:53 | 44.13360 | 15.77139 | 17501 ft | 316 kts | 174° |
| 2026-05-07 15:53 | 44.11206 | 15.77728 | 17125 ft | 315 kts | 174° |
| 2026-05-07 15:54 | 44.09059 | 15.78317 | 16745 ft | 314 kts | 174° |
| 2026-05-07 15:54 | 44.06916 | 15.78901 | 16372 ft | 313 kts | 174° |
| 2026-05-07 15:54 | 44.04781 | 15.79476 | 15999 ft | 312 kts | 174° |
| 2026-05-07 15:54 | 44.02648 | 15.80046 | 15630 ft | 312 kts | 174° |
| 2026-05-07 15:55 | 44.00520 | 15.80616 | 15261 ft | 311 kts | 174° |
| 2026-05-07 15:55 | 43.98396 | 15.81186 | 14892 ft | 311 kts | 174° |
| 2026-05-07 15:55 | 43.96274 | 15.81760 | 14524 ft | 310 kts | 173° |
| 2026-05-07 15:55 | 43.95559 | 15.81954 | 14397 ft | 310 kts | 173° |
| 2026-05-07 15:56 | 43.94498 | 15.82245 | 14120 ft | 313 kts | 173° |
| 2026-05-07 15:56 | 43.92358 | 15.82824 | 13786 ft | 311 kts | 173° |
| 2026-05-07 15:56 | 43.90245 | 15.83386 | 13432 ft | 309 kts | 173° |
| 2026-05-07 15:56 | 43.88137 | 15.83945 | 13047 ft | 307 kts | 173° |
| 2026-05-07 15:57 | 43.86042 | 15.84506 | 12682 ft | 306 kts | 173° |
| 2026-05-07 15:57 | 43.83959 | 15.85064 | 12308 ft | 304 kts | 173° |
| 2026-05-07 15:57 | 43.81884 | 15.85617 | 11936 ft | 303 kts | 173° |
| 2026-05-07 15:57 | 43.79819 | 15.86168 | 11548 ft | 301 kts | 172° |
| 2026-05-07 15:58 | 43.77770 | 15.86716 | 11175 ft | 300 kts | 172° |
| 2026-05-07 15:58 | 43.75719 | 15.87263 | 10780 ft | 300 kts | 172° |
| 2026-05-07 15:58 | 43.73947 | 15.87737 | 10445 ft | 299 kts | 172° |
| 2026-05-07 15:58 | 43.71903 | 15.88283 | 10051 ft | 299 kts | 173° |
| 2026-05-07 15:59 | 43.69872 | 15.88824 | 9775 ft | 293 kts | 172° |
| 2026-05-07 15:59 | 43.67889 | 15.89352 | 9452 ft | 287 kts | 173° |
| 2026-05-07 15:59 | 43.65939 | 15.89872 | 8863 ft | 284 kts | 173° |
| 2026-05-07 15:59 | 43.64043 | 15.90379 | 8400 ft | 278 kts | 173° |
| 2026-05-07 16:00 | 43.62168 | 15.90880 | 8003 ft | 270 kts | 171° |
| 2026-05-07 16:00 | 43.60346 | 15.91365 | 7605 ft | 263 kts | 171° |
| 2026-05-07 16:00 | 43.58527 | 15.91846 | 7218 ft | 262 kts | 171° |
| 2026-05-07 16:00 | 43.56757 | 15.92314 | 6826 ft | 263 kts | 172° |
| 2026-05-07 16:01 | 43.54958 | 15.92792 | 6423 ft | 264 kts | 171° |
| 2026-05-07 16:01 | 43.53152 | 15.93268 | 5988 ft | 265 kts | 171° |
| 2026-05-07 16:01 | 43.51342 | 15.93745 | 5583 ft | 265 kts | 171° |
| 2026-05-07 16:01 | 43.49545 | 15.94281 | 5172 ft | 264 kts | 163° |
| 2026-05-07 16:02 | 43.47926 | 15.95372 | 4944 ft | 257 kts | 147° |
| 2026-05-07 16:02 | 43.46538 | 15.96826 | 4697 ft | 243 kts | 144° |
| 2026-05-07 16:02 | 43.45246 | 15.98199 | 4449 ft | 228 kts | 143° |
| 2026-05-07 16:02 | 43.44017 | 15.99496 | 4198 ft | 217 kts | 144° |
| 2026-05-07 16:03 | 43.42847 | 16.00729 | 3939 ft | 206 kts | 144° |
| 2026-05-07 16:03 | 43.41740 | 16.01897 | 3786 ft | 195 kts | 143° |
| 2026-05-07 16:03 | 43.40740 | 16.03117 | 3651 ft | 191 kts | 124° |
| 2026-05-07 16:03 | 43.40371 | 16.04833 | 3505 ft | 192 kts | 89° |
| 2026-05-07 16:04 | 43.40866 | 16.06533 | 3354 ft | 197 kts | 59° |
| 2026-05-07 16:04 | 43.41706 | 16.08016 | 3155 ft | 196 kts | 56° |
| 2026-05-07 16:04 | 43.42542 | 16.09484 | 2934 ft | 194 kts | 57° |
| 2026-05-07 16:04 | 43.43369 | 16.10956 | 2820 ft | 195 kts | 58° |
| 2026-05-07 16:05 | 43.44193 | 16.12422 | 2804 ft | 193 kts | 59° |
| 2026-05-07 16:05 | 43.45012 | 16.13886 | 2708 ft | 191 kts | 58° |
| 2026-05-07 16:05 | 43.45805 | 16.15300 | 2468 ft | 182 kts | 57° |
| 2026-05-07 16:05 | 43.46554 | 16.16635 | 2238 ft | 170 kts | 60° |
| 2026-05-07 16:06 | 43.47256 | 16.17888 | 2035 ft | 159 kts | 60° |
| 2026-05-07 16:06 | 43.47907 | 16.19050 | 1832 ft | 146 kts | 60° |
| 2026-05-07 16:06 | 43.48508 | 16.20127 | 1611 ft | 138 kts | 59° |
| 2026-05-07 16:06 | 43.49069 | 16.21140 | 1390 ft | 132 kts | 56° |
| 2026-05-07 16:07 | 43.49638 | 16.22168 | 1234 ft | 133 kts | 54° |
| 2026-05-07 16:07 | 43.50209 | 16.23192 | 1097 ft | 138 kts | 52° |
| 2026-05-07 16:07 | 43.50797 | 16.24276 | 905 ft | 143 kts | 53° |
| 2026-05-07 16:07 | 43.51412 | 16.25356 | 721 ft | 142 kts | 52° |
| 2026-05-07 16:08 | 43.52018 | 16.26428 | 505 ft | 142 kts | 53° |
| 2026-05-07 16:08 | 43.52612 | 16.27492 | 316 ft | 140 kts | 55° |
| 2026-05-07 16:08 | 43.53194 | 16.28538 | 122 ft | 138 kts | 56° |
| 2026-05-07 16:08 | 43.53732 | 16.29508 | 87 ft | 103 kts | 52° |
| 2026-05-07 16:09 | 43.54016 | 16.30016 | 77 ft | 36 kts | 53° |
| 2026-05-07 16:09 | 43.54041 | 16.30106 | 68 ft | 4 kts | 173° |
| 2026-05-07 16:09 | 43.54004 | 16.30096 | 64 ft | 9 kts | 196° |
| 2026-05-07 16:09 | 43.53935 | 16.30069 | 76 ft | 9 kts | 198° |
| 2026-05-07 16:10 | 43.53891 | 16.30031 | 68 ft | 7 kts | 222° |
| 2026-05-07 16:10 | 43.53842 | 16.29946 | 84 ft | 13 kts | 233° |
| 2026-05-07 16:10 | 43.53790 | 16.29853 | 85 ft | 11 kts | 234° |
| 2026-05-07 16:10 | 43.53752 | 16.29784 | 86 ft | 7 kts | 232° |
| 2026-05-07 16:11 | 43.53719 | 16.29725 | 84 ft | 8 kts | 232° |
| 2026-05-07 16:11 | 43.53690 | 16.29673 | 89 ft | 7 kts | 232° |
| 2026-05-07 16:11 | 43.53645 | 16.29592 | 84 ft | 11 kts | 221° |
| 2026-05-07 16:11 | 43.53619 | 16.29615 | 88 ft | 4 kts | 86° |
| 2026-05-07 16:12 | 43.53618 | 16.29661 | 82 ft | 3 kts | 98° |
| 2026-05-07 16:12 | 43.53618 | 16.29663 | 82 ft | 0 kts | 98° |